sensor_id;sensor_type;location;lat;lon;timestamp;temperature;humidity
11615;DHT22;5863;52.832;4.758;2022-12-13T00:02:03;-0.90;99.90
11615;DHT22;5863;52.832;4.758;2022-12-13T00:04:31;-1.00;99.90
11615;DHT22;5863;52.832;4.758;2022-12-13T00:06:59;-1.00;99.90
11615;DHT22;5863;52.832;4.758;2022-12-13T00:09:26;-1.00;99.90
11615;DHT22;5863;52.832;4.758;2022-12-13T00:11:53;-0.90;99.90
11615;DHT22;5863;52.832;4.758;2022-12-13T00:14:20;-1.00;99.90
11615;DHT22;5863;52.832;4.758;2022-12-13T00:16:47;-1.10;99.90
11615;DHT22;5863;52.832;4.758;2022-12-13T00:19:15;-1.10;99.90
11615;DHT22;5863;52.832;4.758;2022-12-13T00:21:43;-1.10;99.90
11615;DHT22;5863;52.832;4.758;2022-12-13T00:24:10;-1.10;99.90
11615;DHT22;5863;52.832;4.758;2022-12-13T00:26:37;-1.20;99.90
11615;DHT22;5863;52.832;4.758;2022-12-13T00:29:05;-1.10;99.90
11615;DHT22;5863;52.832;4.758;2022-12-13T00:31:32;-1.30;99.90
11615;DHT22;5863;52.832;4.758;2022-12-13T00:34:06;-1.20;99.90
11615;DHT22;5863;52.832;4.758;2022-12-13T00:36:33;-1.20;99.90
11615;DHT22;5863;52.832;4.758;2022-12-13T00:39:03;-1.20;99.90
11615;DHT22;5863;52.832;4.758;2022-12-13T00:41:32;-1.20;99.90
11615;DHT22;5863;52.832;4.758;2022-12-13T00:44:00;-1.30;99.90
11615;DHT22;5863;52.832;4.758;2022-12-13T00:46:28;-1.30;99.90
11615;DHT22;5863;52.832;4.758;2022-12-13T00:48:56;-1.30;99.90
11615;DHT22;5863;52.832;4.758;2022-12-13T00:51:25;-1.40;99.90
11615;DHT22;5863;52.832;4.758;2022-12-13T00:53:52;-1.40;99.90
11615;DHT22;5863;52.832;4.758;2022-12-13T00:56:28;-1.40;99.90
11615;DHT22;5863;52.832;4.758;2022-12-13T00:58:56;-1.30;99.90
11615;DHT22;5863;52.832;4.758;2022-12-13T01:01:24;-1.30;99.90
11615;DHT22;5863;52.832;4.758;2022-12-13T01:03:52;-1.30;99.90
11615;DHT22;5863;52.832;4.758;2022-12-13T01:06:21;-1.30;99.90
11615;DHT22;5863;52.832;4.758;2022-12-13T01:08:48;-1.40;99.90
11615;DHT22;5863;52.832;4.758;2022-12-13T01:11:15;-1.40;99.90
11615;DHT22;5863;52.832;4.758;2022-12-13T01:13:43;-1.50;99.90
11615;DHT22;5863;52.832;4.758;2022-12-13T01:16:11;-1.50;99.90
11615;DHT22;5863;52.832;4.758;2022-12-13T01:18:39;-1.40;99.90
11615;DHT22;5863;52.832;4.758;2022-12-13T01:21:08;-1.40;99.90
11615;DHT22;5863;52.832;4.758;2022-12-13T01:23:35;-1.50;99.90
11615;DHT22;5863;52.832;4.758;2022-12-13T01:26:03;-1.50;99.90
11615;DHT22;5863;52.832;4.758;2022-12-13T01:28:30;-1.60;99.90
11615;DHT22;5863;52.832;4.758;2022-12-13T01:30:59;-1.60;99.90
11615;DHT22;5863;52.832;4.758;2022-12-13T01:33:27;-1.70;99.90
11615;DHT22;5863;52.832;4.758;2022-12-13T01:35:54;-1.60;99.90
11615;DHT22;5863;52.832;4.758;2022-12-13T01:38:21;-1.50;99.90
11615;DHT22;5863;52.832;4.758;2022-12-13T01:40:50;-1.40;99.90
11615;DHT22;5863;52.832;4.758;2022-12-13T01:43:22;-1.50;99.90
11615;DHT22;5863;52.832;4.758;2022-12-13T01:45:55;-1.60;99.90
11615;DHT22;5863;52.832;4.758;2022-12-13T01:48:25;-1.70;99.90
11615;DHT22;5863;52.832;4.758;2022-12-13T01:50:57;-1.70;99.90
11615;DHT22;5863;52.832;4.758;2022-12-13T01:53:29;-1.70;99.90
11615;DHT22;5863;52.832;4.758;2022-12-13T01:55:59;-1.70;99.90
11615;DHT22;5863;52.832;4.758;2022-12-13T01:58:28;-1.70;99.90
11615;DHT22;5863;52.832;4.758;2022-12-13T02:00:55;-1.70;99.90
11615;DHT22;5863;52.832;4.758;2022-12-13T02:03:23;-1.80;99.90
11615;DHT22;5863;52.832;4.758;2022-12-13T02:05:53;-1.70;99.90
11615;DHT22;5863;52.832;4.758;2022-12-13T02:08:21;-1.70;99.90
11615;DHT22;5863;52.832;4.758;2022-12-13T02:10:49;-1.70;99.90
11615;DHT22;5863;52.832;4.758;2022-12-13T02:13:16;-1.80;99.90
11615;DHT22;5863;52.832;4.758;2022-12-13T02:15:49;-1.70;99.90
11615;DHT22;5863;52.832;4.758;2022-12-13T02:18:28;-1.70;99.90
11615;DHT22;5863;52.832;4.758;2022-12-13T02:21:03;-1.80;99.90
11615;DHT22;5863;52.832;4.758;2022-12-13T02:24:18;-1.80;99.90
11615;DHT22;5863;52.832;4.758;2022-12-13T02:26:58;-1.90;99.90
11615;DHT22;5863;52.832;4.758;2022-12-13T02:29:51;-1.90;99.90
11615;DHT22;5863;52.832;4.758;2022-12-13T02:32:26;-1.90;99.90
11615;DHT22;5863;52.832;4.758;2022-12-13T02:34:57;-1.90;99.90
11615;DHT22;5863;52.832;4.758;2022-12-13T02:37:31;-1.90;99.90
11615;DHT22;5863;52.832;4.758;2022-12-13T02:40:02;-1.80;99.90
11615;DHT22;5863;52.832;4.758;2022-12-13T02:42:36;-1.80;99.90
11615;DHT22;5863;52.832;4.758;2022-12-13T02:45:11;-1.80;99.90
11615;DHT22;5863;52.832;4.758;2022-12-13T02:47:41;-1.80;99.90
11615;DHT22;5863;52.832;4.758;2022-12-13T02:50:10;-1.80;99.90
11615;DHT22;5863;52.832;4.758;2022-12-13T02:52:39;-1.90;99.90
11615;DHT22;5863;52.832;4.758;2022-12-13T02:55:12;-1.80;99.90
11615;DHT22;5863;52.832;4.758;2022-12-13T02:57:41;-1.90;99.90
11615;DHT22;5863;52.832;4.758;2022-12-13T03:00:11;-1.80;99.90
11615;DHT22;5863;52.832;4.758;2022-12-13T03:02:56;-1.70;99.90
11615;DHT22;5863;52.832;4.758;2022-12-13T03:05:30;-1.80;99.90
11615;DHT22;5863;52.832;4.758;2022-12-13T03:08:22;-1.80;99.90
11615;DHT22;5863;52.832;4.758;2022-12-13T03:10:58;-1.80;99.90
11615;DHT22;5863;52.832;4.758;2022-12-13T03:13:32;-1.80;99.90
11615;DHT22;5863;52.832;4.758;2022-12-13T03:16:08;-1.90;99.90
11615;DHT22;5863;52.832;4.758;2022-12-13T03:18:38;-1.90;99.90
11615;DHT22;5863;52.832;4.758;2022-12-13T03:21:07;-1.90;99.90
11615;DHT22;5863;52.832;4.758;2022-12-13T03:23:35;-1.90;99.90
11615;DHT22;5863;52.832;4.758;2022-12-13T03:26:05;-1.90;99.90
11615;DHT22;5863;52.832;4.758;2022-12-13T03:28:32;-1.90;99.90
11615;DHT22;5863;52.832;4.758;2022-12-13T03:30:59;-2.00;99.90
11615;DHT22;5863;52.832;4.758;2022-12-13T03:33:26;-2.10;99.90
11615;DHT22;5863;52.832;4.758;2022-12-13T03:35:54;-2.00;99.90
11615;DHT22;5863;52.832;4.758;2022-12-13T03:38:21;-2.10;99.90
11615;DHT22;5863;52.832;4.758;2022-12-13T03:40:49;-2.10;99.90
11615;DHT22;5863;52.832;4.758;2022-12-13T03:43:18;-2.10;99.90
11615;DHT22;5863;52.832;4.758;2022-12-13T03:45:45;-2.00;99.90
11615;DHT22;5863;52.832;4.758;2022-12-13T03:48:11;-2.10;99.90
11615;DHT22;5863;52.832;4.758;2022-12-13T03:50:38;-2.00;99.90
11615;DHT22;5863;52.832;4.758;2022-12-13T03:53:13;-2.00;99.90
11615;DHT22;5863;52.832;4.758;2022-12-13T03:55:40;-1.90;99.90
11615;DHT22;5863;52.832;4.758;2022-12-13T03:58:06;-1.90;99.90
11615;DHT22;5863;52.832;4.758;2022-12-13T04:00:33;-2.00;99.90
11615;DHT22;5863;52.832;4.758;2022-12-13T04:03:00;-2.00;99.90
11615;DHT22;5863;52.832;4.758;2022-12-13T04:05:34;-2.10;99.90
11615;DHT22;5863;52.832;4.758;2022-12-13T04:08:01;-2.00;99.90
11615;DHT22;5863;52.832;4.758;2022-12-13T04:10:29;-2.00;99.90
11615;DHT22;5863;52.832;4.758;2022-12-13T04:12:56;-2.00;99.90
11615;DHT22;5863;52.832;4.758;2022-12-13T04:15:40;-2.00;99.90
11615;DHT22;5863;52.832;4.758;2022-12-13T04:18:13;-1.90;99.90
11615;DHT22;5863;52.832;4.758;2022-12-13T04:20:40;-2.00;99.90
11615;DHT22;5863;52.832;4.758;2022-12-13T04:23:07;-2.00;99.90
11615;DHT22;5863;52.832;4.758;2022-12-13T04:25:38;-2.00;99.90
11615;DHT22;5863;52.832;4.758;2022-12-13T04:28:05;-2.00;99.90
11615;DHT22;5863;52.832;4.758;2022-12-13T04:30:33;-2.10;99.90
11615;DHT22;5863;52.832;4.758;2022-12-13T04:33:00;-2.10;99.90
11615;DHT22;5863;52.832;4.758;2022-12-13T04:35:35;-2.10;99.90
11615;DHT22;5863;52.832;4.758;2022-12-13T04:38:01;-2.20;99.90
11615;DHT22;5863;52.832;4.758;2022-12-13T04:40:28;-2.10;99.90
11615;DHT22;5863;52.832;4.758;2022-12-13T04:42:56;-2.20;99.90
11615;DHT22;5863;52.832;4.758;2022-12-13T04:45:23;-2.30;99.90
11615;DHT22;5863;52.832;4.758;2022-12-13T04:47:50;-2.30;99.90
11615;DHT22;5863;52.832;4.758;2022-12-13T04:50:16;-2.30;99.90
11615;DHT22;5863;52.832;4.758;2022-12-13T04:52:44;-2.40;99.90
11615;DHT22;5863;52.832;4.758;2022-12-13T04:55:11;-2.40;99.90
11615;DHT22;5863;52.832;4.758;2022-12-13T04:57:38;-2.40;99.90
11615;DHT22;5863;52.832;4.758;2022-12-13T05:00:09;-2.50;99.90
11615;DHT22;5863;52.832;4.758;2022-12-13T05:02:39;-2.40;99.90
11615;DHT22;5863;52.832;4.758;2022-12-13T05:05:07;-2.40;99.90
11615;DHT22;5863;52.832;4.758;2022-12-13T05:07:34;-2.50;99.90
11615;DHT22;5863;52.832;4.758;2022-12-13T05:10:01;-2.50;99.90
11615;DHT22;5863;52.832;4.758;2022-12-13T05:12:27;-2.40;99.90
11615;DHT22;5863;52.832;4.758;2022-12-13T05:14:54;-2.40;99.90
11615;DHT22;5863;52.832;4.758;2022-12-13T05:17:22;-2.30;99.90
11615;DHT22;5863;52.832;4.758;2022-12-13T05:19:49;-2.30;99.90
11615;DHT22;5863;52.832;4.758;2022-12-13T05:22:15;-2.20;99.90
11615;DHT22;5863;52.832;4.758;2022-12-13T05:24:42;-2.20;99.90
11615;DHT22;5863;52.832;4.758;2022-12-13T05:27:10;-2.30;99.90
11615;DHT22;5863;52.832;4.758;2022-12-13T05:29:37;-2.30;99.90
11615;DHT22;5863;52.832;4.758;2022-12-13T05:32:04;-2.30;99.90
11615;DHT22;5863;52.832;4.758;2022-12-13T05:34:32;-2.30;99.90
11615;DHT22;5863;52.832;4.758;2022-12-13T05:37:00;-2.30;99.90
11615;DHT22;5863;52.832;4.758;2022-12-13T05:39:27;-2.30;99.90
11615;DHT22;5863;52.832;4.758;2022-12-13T05:41:53;-2.30;99.90
11615;DHT22;5863;52.832;4.758;2022-12-13T05:44:21;-2.30;99.90
11615;DHT22;5863;52.832;4.758;2022-12-13T05:46:47;-2.40;99.90
11615;DHT22;5863;52.832;4.758;2022-12-13T05:49:14;-2.40;99.90
11615;DHT22;5863;52.832;4.758;2022-12-13T05:51:45;-2.40;99.90
11615;DHT22;5863;52.832;4.758;2022-12-13T05:54:11;-2.30;99.90
11615;DHT22;5863;52.832;4.758;2022-12-13T05:56:38;-2.30;99.90
11615;DHT22;5863;52.832;4.758;2022-12-13T05:59:05;-2.30;99.90
11615;DHT22;5863;52.832;4.758;2022-12-13T06:01:31;-2.40;99.90
11615;DHT22;5863;52.832;4.758;2022-12-13T06:03:58;-2.40;99.90
11615;DHT22;5863;52.832;4.758;2022-12-13T06:06:25;-2.40;99.90
11615;DHT22;5863;52.832;4.758;2022-12-13T06:08:53;-2.40;99.90
11615;DHT22;5863;52.832;4.758;2022-12-13T06:11:19;-2.40;99.90
11615;DHT22;5863;52.832;4.758;2022-12-13T06:13:49;-2.40;99.90
11615;DHT22;5863;52.832;4.758;2022-12-13T06:16:16;-2.30;99.90
11615;DHT22;5863;52.832;4.758;2022-12-13T06:18:43;-2.30;99.90
11615;DHT22;5863;52.832;4.758;2022-12-13T06:21:10;-2.20;99.90
11615;DHT22;5863;52.832;4.758;2022-12-13T06:23:37;-2.20;99.90
11615;DHT22;5863;52.832;4.758;2022-12-13T06:26:06;-2.20;99.90
11615;DHT22;5863;52.832;4.758;2022-12-13T06:28:33;-2.20;99.90
11615;DHT22;5863;52.832;4.758;2022-12-13T06:31:00;-2.20;99.90
11615;DHT22;5863;52.832;4.758;2022-12-13T06:33:26;-2.30;99.90
11615;DHT22;5863;52.832;4.758;2022-12-13T06:35:55;-2.20;99.90
11615;DHT22;5863;52.832;4.758;2022-12-13T06:38:22;-2.20;99.90
11615;DHT22;5863;52.832;4.758;2022-12-13T06:40:49;-2.20;99.90
11615;DHT22;5863;52.832;4.758;2022-12-13T06:43:17;-2.20;99.90
11615;DHT22;5863;52.832;4.758;2022-12-13T06:45:44;-2.30;99.90
11615;DHT22;5863;52.832;4.758;2022-12-13T06:48:11;-2.20;99.90
11615;DHT22;5863;52.832;4.758;2022-12-13T06:50:38;-2.30;99.90
11615;DHT22;5863;52.832;4.758;2022-12-13T06:53:05;-2.10;99.90
11615;DHT22;5863;52.832;4.758;2022-12-13T06:55:34;-2.20;99.90
11615;DHT22;5863;52.832;4.758;2022-12-13T06:58:00;-2.20;99.90
11615;DHT22;5863;52.832;4.758;2022-12-13T07:00:29;-2.20;99.90
11615;DHT22;5863;52.832;4.758;2022-12-13T07:02:56;-2.10;99.90
11615;DHT22;5863;52.832;4.758;2022-12-13T07:05:23;-2.10;99.90
11615;DHT22;5863;52.832;4.758;2022-12-13T07:07:51;-2.10;99.90
11615;DHT22;5863;52.832;4.758;2022-12-13T07:10:18;-2.10;99.90
11615;DHT22;5863;52.832;4.758;2022-12-13T07:12:45;-2.10;99.90
11615;DHT22;5863;52.832;4.758;2022-12-13T07:15:12;-2.00;99.90
11615;DHT22;5863;52.832;4.758;2022-12-13T07:17:40;-2.00;99.90
11615;DHT22;5863;52.832;4.758;2022-12-13T07:20:08;-2.10;99.90
11615;DHT22;5863;52.832;4.758;2022-12-13T07:22:36;-2.10;99.90
11615;DHT22;5863;52.832;4.758;2022-12-13T07:25:04;-2.10;99.90
11615;DHT22;5863;52.832;4.758;2022-12-13T07:27:32;-2.00;99.90
11615;DHT22;5863;52.832;4.758;2022-12-13T07:29:59;-1.90;99.90
11615;DHT22;5863;52.832;4.758;2022-12-13T07:32:27;-1.80;99.90
11615;DHT22;5863;52.832;4.758;2022-12-13T07:34:55;-1.90;99.90
11615;DHT22;5863;52.832;4.758;2022-12-13T07:37:22;-2.00;99.90
11615;DHT22;5863;52.832;4.758;2022-12-13T07:39:48;-2.00;99.90
11615;DHT22;5863;52.832;4.758;2022-12-13T07:42:15;-2.00;99.90
11615;DHT22;5863;52.832;4.758;2022-12-13T07:44:42;-2.10;99.90
11615;DHT22;5863;52.832;4.758;2022-12-13T07:47:09;-2.00;99.90
11615;DHT22;5863;52.832;4.758;2022-12-13T07:49:36;-2.00;99.90
11615;DHT22;5863;52.832;4.758;2022-12-13T07:52:10;-2.10;99.90
11615;DHT22;5863;52.832;4.758;2022-12-13T07:54:37;-2.10;99.90
11615;DHT22;5863;52.832;4.758;2022-12-13T07:57:04;-2.20;99.90
11615;DHT22;5863;52.832;4.758;2022-12-13T07:59:30;-2.30;99.90
11615;DHT22;5863;52.832;4.758;2022-12-13T08:01:57;-2.30;99.90
11615;DHT22;5863;52.832;4.758;2022-12-13T08:04:24;-2.30;99.90
11615;DHT22;5863;52.832;4.758;2022-12-13T08:06:50;-2.20;99.90
11615;DHT22;5863;52.832;4.758;2022-12-13T08:09:19;-2.10;99.90
11615;DHT22;5863;52.832;4.758;2022-12-13T08:11:45;-2.10;99.90
11615;DHT22;5863;52.832;4.758;2022-12-13T08:14:12;-2.10;99.90
11615;DHT22;5863;52.832;4.758;2022-12-13T08:16:39;-2.10;99.90
11615;DHT22;5863;52.832;4.758;2022-12-13T08:19:07;-2.10;99.90
11615;DHT22;5863;52.832;4.758;2022-12-13T08:21:34;-2.10;99.90
11615;DHT22;5863;52.832;4.758;2022-12-13T08:24:03;-2.10;99.90
11615;DHT22;5863;52.832;4.758;2022-12-13T08:26:32;-2.10;99.90
11615;DHT22;5863;52.832;4.758;2022-12-13T08:28:59;-2.10;99.90
11615;DHT22;5863;52.832;4.758;2022-12-13T08:31:40;-2.10;99.90
11615;DHT22;5863;52.832;4.758;2022-12-13T08:34:07;-2.10;99.90
11615;DHT22;5863;52.832;4.758;2022-12-13T08:36:34;-2.00;99.90
11615;DHT22;5863;52.832;4.758;2022-12-13T08:39:01;-1.90;99.90
11615;DHT22;5863;52.832;4.758;2022-12-13T08:41:29;-1.80;99.90
11615;DHT22;5863;52.832;4.758;2022-12-13T08:43:57;-1.80;99.90
11615;DHT22;5863;52.832;4.758;2022-12-13T08:46:24;-1.70;99.90
11615;DHT22;5863;52.832;4.758;2022-12-13T08:48:52;-1.60;99.90
11615;DHT22;5863;52.832;4.758;2022-12-13T08:51:19;-1.60;99.90
11615;DHT22;5863;52.832;4.758;2022-12-13T08:53:48;-1.60;99.90
11615;DHT22;5863;52.832;4.758;2022-12-13T08:56:15;-1.50;99.90
11615;DHT22;5863;52.832;4.758;2022-12-13T08:58:43;-1.50;99.90
11615;DHT22;5863;52.832;4.758;2022-12-13T09:01:13;-1.40;99.90
11615;DHT22;5863;52.832;4.758;2022-12-13T09:03:40;-1.40;99.90
11615;DHT22;5863;52.832;4.758;2022-12-13T09:06:07;-1.30;99.90
11615;DHT22;5863;52.832;4.758;2022-12-13T09:08:35;-1.30;99.90
11615;DHT22;5863;52.832;4.758;2022-12-13T09:11:02;-1.20;99.90
11615;DHT22;5863;52.832;4.758;2022-12-13T09:13:29;-1.20;99.90
11615;DHT22;5863;52.832;4.758;2022-12-13T09:15:56;-1.10;99.90
11615;DHT22;5863;52.832;4.758;2022-12-13T09:18:25;-1.10;99.90
11615;DHT22;5863;52.832;4.758;2022-12-13T09:20:52;-1.10;99.90
11615;DHT22;5863;52.832;4.758;2022-12-13T09:23:18;-0.90;99.90
11615;DHT22;5863;52.832;4.758;2022-12-13T09:25:52;-0.90;99.90
11615;DHT22;5863;52.832;4.758;2022-12-13T09:28:19;-0.80;99.90
11615;DHT22;5863;52.832;4.758;2022-12-13T09:30:46;-0.70;99.90
11615;DHT22;5863;52.832;4.758;2022-12-13T09:33:12;-0.70;99.90
11615;DHT22;5863;52.832;4.758;2022-12-13T09:35:40;-0.70;99.90
11615;DHT22;5863;52.832;4.758;2022-12-13T09:38:08;-0.60;99.90
11615;DHT22;5863;52.832;4.758;2022-12-13T09:40:37;-0.60;99.90
11615;DHT22;5863;52.832;4.758;2022-12-13T09:43:04;-0.50;99.90
11615;DHT22;5863;52.832;4.758;2022-12-13T09:45:33;-0.40;99.90
11615;DHT22;5863;52.832;4.758;2022-12-13T09:48:00;-0.40;99.90
11615;DHT22;5863;52.832;4.758;2022-12-13T09:50:30;-0.40;99.90
11615;DHT22;5863;52.832;4.758;2022-12-13T09:53:03;-0.20;99.90
11615;DHT22;5863;52.832;4.758;2022-12-13T09:55:37;-0.10;99.90
11615;DHT22;5863;52.832;4.758;2022-12-13T09:58:07;-0.10;99.90
11615;DHT22;5863;52.832;4.758;2022-12-13T10:00:37;0.10;99.90
11615;DHT22;5863;52.832;4.758;2022-12-13T10:03:04;0.20;99.90
11615;DHT22;5863;52.832;4.758;2022-12-13T10:05:32;0.20;99.90
11615;DHT22;5863;52.832;4.758;2022-12-13T10:08:04;0.30;99.90
11615;DHT22;5863;52.832;4.758;2022-12-13T10:10:32;0.40;99.90
11615;DHT22;5863;52.832;4.758;2022-12-13T10:13:04;0.40;99.90
11615;DHT22;5863;52.832;4.758;2022-12-13T10:15:36;0.50;99.90
11615;DHT22;5863;52.832;4.758;2022-12-13T10:18:05;0.60;99.90
11615;DHT22;5863;52.832;4.758;2022-12-13T10:20:32;0.70;99.90
11615;DHT22;5863;52.832;4.758;2022-12-13T10:23:01;0.80;99.90
11615;DHT22;5863;52.832;4.758;2022-12-13T10:25:52;0.90;99.90
11615;DHT22;5863;52.832;4.758;2022-12-13T10:28:26;1.00;99.90
11615;DHT22;5863;52.832;4.758;2022-12-13T10:30:54;1.00;99.90
11615;DHT22;5863;52.832;4.758;2022-12-13T10:33:24;1.10;99.90
11615;DHT22;5863;52.832;4.758;2022-12-13T10:36:07;1.20;99.90
11615;DHT22;5863;52.832;4.758;2022-12-13T10:38:37;1.30;99.90
11615;DHT22;5863;52.832;4.758;2022-12-13T10:41:26;1.40;99.90
11615;DHT22;5863;52.832;4.758;2022-12-13T10:44:20;1.50;99.90
11615;DHT22;5863;52.832;4.758;2022-12-13T10:46:52;1.60;99.90
11615;DHT22;5863;52.832;4.758;2022-12-13T10:49:26;1.60;99.90
11615;DHT22;5863;52.832;4.758;2022-12-13T10:51:56;1.70;99.90
11615;DHT22;5863;52.832;4.758;2022-12-13T10:54:28;1.80;99.90
11615;DHT22;5863;52.832;4.758;2022-12-13T10:56:56;1.80;99.90
11615;DHT22;5863;52.832;4.758;2022-12-13T10:59:30;1.90;99.90
11615;DHT22;5863;52.832;4.758;2022-12-13T11:01:57;2.00;99.90
11615;DHT22;5863;52.832;4.758;2022-12-13T11:04:28;2.10;99.90
11615;DHT22;5863;52.832;4.758;2022-12-13T11:06:57;2.10;99.90
11615;DHT22;5863;52.832;4.758;2022-12-13T11:09:28;2.10;99.90
11615;DHT22;5863;52.832;4.758;2022-12-13T11:11:57;2.20;99.90
11615;DHT22;5863;52.832;4.758;2022-12-13T11:14:26;2.30;99.90
11615;DHT22;5863;52.832;4.758;2022-12-13T11:16:55;2.30;99.90
11615;DHT22;5863;52.832;4.758;2022-12-13T11:19:25;2.40;99.90
11615;DHT22;5863;52.832;4.758;2022-12-13T11:21:53;2.40;99.90
11615;DHT22;5863;52.832;4.758;2022-12-13T11:24:23;2.50;99.90
11615;DHT22;5863;52.832;4.758;2022-12-13T11:26:56;2.50;99.90
11615;DHT22;5863;52.832;4.758;2022-12-13T11:29:39;2.50;99.90
11615;DHT22;5863;52.832;4.758;2022-12-13T11:32:13;2.60;99.90
11615;DHT22;5863;52.832;4.758;2022-12-13T11:34:47;2.60;99.90
11615;DHT22;5863;52.832;4.758;2022-12-13T11:37:24;2.70;99.90
11615;DHT22;5863;52.832;4.758;2022-12-13T11:39:56;2.60;99.90
11615;DHT22;5863;52.832;4.758;2022-12-13T11:42:28;2.80;99.90
11615;DHT22;5863;52.832;4.758;2022-12-13T11:45:01;2.80;99.90
11615;DHT22;5863;52.832;4.758;2022-12-13T11:47:34;2.80;99.90
11615;DHT22;5863;52.832;4.758;2022-12-13T11:50:14;3.00;99.90
11615;DHT22;5863;52.832;4.758;2022-12-13T11:52:45;3.00;99.90
11615;DHT22;5863;52.832;4.758;2022-12-13T11:55:16;3.10;99.90
11615;DHT22;5863;52.832;4.758;2022-12-13T11:57:50;3.10;99.90
11615;DHT22;5863;52.832;4.758;2022-12-13T12:00:32;3.10;99.90
11615;DHT22;5863;52.832;4.758;2022-12-13T12:03:14;3.20;99.90
11615;DHT22;5863;52.832;4.758;2022-12-13T12:05:46;3.20;99.90
11615;DHT22;5863;52.832;4.758;2022-12-13T12:08:19;3.30;99.90
11615;DHT22;5863;52.832;4.758;2022-12-13T12:10:48;3.30;99.90
11615;DHT22;5863;52.832;4.758;2022-12-13T12:13:26;3.30;99.90
11615;DHT22;5863;52.832;4.758;2022-12-13T12:16:01;3.30;99.90
11615;DHT22;5863;52.832;4.758;2022-12-13T12:18:31;3.30;99.90
11615;DHT22;5863;52.832;4.758;2022-12-13T12:21:05;3.30;99.90
11615;DHT22;5863;52.832;4.758;2022-12-13T12:23:44;3.20;99.90
11615;DHT22;5863;52.832;4.758;2022-12-13T12:26:14;3.10;99.90
11615;DHT22;5863;52.832;4.758;2022-12-13T12:29:11;3.10;99.90
11615;DHT22;5863;52.832;4.758;2022-12-13T12:31:45;3.10;99.90
11615;DHT22;5863;52.832;4.758;2022-12-13T12:34:21;3.00;99.90
11615;DHT22;5863;52.832;4.758;2022-12-13T12:36:58;3.10;99.90
11615;DHT22;5863;52.832;4.758;2022-12-13T12:39:43;3.00;99.90
11615;DHT22;5863;52.832;4.758;2022-12-13T12:42:37;3.00;99.90
11615;DHT22;5863;52.832;4.758;2022-12-13T12:45:19;3.00;99.90
11615;DHT22;5863;52.832;4.758;2022-12-13T12:47:57;3.00;99.90
11615;DHT22;5863;52.832;4.758;2022-12-13T12:50:34;3.10;99.90
11615;DHT22;5863;52.832;4.758;2022-12-13T12:56:01;3.10;99.90
11615;DHT22;5863;52.832;4.758;2022-12-13T12:58:36;3.10;99.90
11615;DHT22;5863;52.832;4.758;2022-12-13T13:01:13;3.20;99.90
11615;DHT22;5863;52.832;4.758;2022-12-13T13:03:44;3.20;99.90
11615;DHT22;5863;52.832;4.758;2022-12-13T13:06:15;3.10;99.90
11615;DHT22;5863;52.832;4.758;2022-12-13T13:08:46;3.10;99.90
11615;DHT22;5863;52.832;4.758;2022-12-13T13:11:14;3.10;99.90
11615;DHT22;5863;52.832;4.758;2022-12-13T13:13:46;3.00;99.90
11615;DHT22;5863;52.832;4.758;2022-12-13T13:16:37;3.00;99.90
11615;DHT22;5863;52.832;4.758;2022-12-13T13:19:04;3.00;99.90
11615;DHT22;5863;52.832;4.758;2022-12-13T13:21:41;2.90;99.90
11615;DHT22;5863;52.832;4.758;2022-12-13T13:24:15;3.00;99.90
11615;DHT22;5863;52.832;4.758;2022-12-13T13:26:43;2.90;99.90
11615;DHT22;5863;52.832;4.758;2022-12-13T13:29:32;2.90;99.90
11615;DHT22;5863;52.832;4.758;2022-12-13T13:34:46;2.70;99.90
11615;DHT22;5863;52.832;4.758;2022-12-13T13:37:26;2.70;99.90
11615;DHT22;5863;52.832;4.758;2022-12-13T13:39:56;2.60;99.90
11615;DHT22;5863;52.832;4.758;2022-12-13T13:42:24;2.50;99.90
11615;DHT22;5863;52.832;4.758;2022-12-13T13:47:53;2.50;99.90
11615;DHT22;5863;52.832;4.758;2022-12-13T13:50:53;2.40;99.90
11615;DHT22;5863;52.832;4.758;2022-12-13T13:56:36;2.30;99.90
11615;DHT22;5863;52.832;4.758;2022-12-13T14:02:32;2.20;99.90
11615;DHT22;5863;52.832;4.758;2022-12-13T14:08:35;2.00;99.90
11615;DHT22;5863;52.832;4.758;2022-12-13T14:11:23;1.90;99.90
11615;DHT22;5863;52.832;4.758;2022-12-13T14:17:40;1.80;99.90
11615;DHT22;5863;52.832;4.758;2022-12-13T14:20:38;1.70;99.90
11615;DHT22;5863;52.832;4.758;2022-12-13T14:23:15;1.60;99.90
11615;DHT22;5863;52.832;4.758;2022-12-13T14:25:58;1.60;99.90
11615;DHT22;5863;52.832;4.758;2022-12-13T14:28:42;1.60;99.90
11615;DHT22;5863;52.832;4.758;2022-12-13T14:31:14;1.60;99.90
11615;DHT22;5863;52.832;4.758;2022-12-13T14:33:43;1.50;99.90
11615;DHT22;5863;52.832;4.758;2022-12-13T14:36:14;1.50;99.90
11615;DHT22;5863;52.832;4.758;2022-12-13T14:38:41;1.40;99.90
11615;DHT22;5863;52.832;4.758;2022-12-13T14:41:15;1.30;99.90
11615;DHT22;5863;52.832;4.758;2022-12-13T14:43:42;1.30;99.90
11615;DHT22;5863;52.832;4.758;2022-12-13T14:46:12;1.30;99.90
11615;DHT22;5863;52.832;4.758;2022-12-13T14:48:44;1.30;99.90
11615;DHT22;5863;52.832;4.758;2022-12-13T14:51:25;1.10;99.90
11615;DHT22;5863;52.832;4.758;2022-12-13T14:53:54;1.10;99.90
11615;DHT22;5863;52.832;4.758;2022-12-13T14:56:22;1.00;99.90
11615;DHT22;5863;52.832;4.758;2022-12-13T14:58:53;0.90;99.90
11615;DHT22;5863;52.832;4.758;2022-12-13T15:01:27;0.90;99.90
11615;DHT22;5863;52.832;4.758;2022-12-13T15:04:15;0.90;99.90
11615;DHT22;5863;52.832;4.758;2022-12-13T15:06:42;0.80;99.90
11615;DHT22;5863;52.832;4.758;2022-12-13T15:09:11;0.80;99.90
11615;DHT22;5863;52.832;4.758;2022-12-13T15:11:41;0.80;99.90
11615;DHT22;5863;52.832;4.758;2022-12-13T15:14:14;0.70;99.90
11615;DHT22;5863;52.832;4.758;2022-12-13T15:16:46;0.70;99.90
11615;DHT22;5863;52.832;4.758;2022-12-13T15:19:15;0.70;99.90
11615;DHT22;5863;52.832;4.758;2022-12-13T15:21:52;0.70;99.90
11615;DHT22;5863;52.832;4.758;2022-12-13T15:24:22;0.70;99.90
11615;DHT22;5863;52.832;4.758;2022-12-13T15:26:53;0.70;99.90
11615;DHT22;5863;52.832;4.758;2022-12-13T15:29:21;0.70;99.90
11615;DHT22;5863;52.832;4.758;2022-12-13T15:31:48;0.60;99.90
11615;DHT22;5863;52.832;4.758;2022-12-13T15:34:29;0.60;99.90
11615;DHT22;5863;52.832;4.758;2022-12-13T15:36:59;0.50;99.90
11615;DHT22;5863;52.832;4.758;2022-12-13T15:39:27;0.40;99.90
11615;DHT22;5863;52.832;4.758;2022-12-13T15:41:56;0.40;99.90
11615;DHT22;5863;52.832;4.758;2022-12-13T15:44:25;0.30;99.90
11615;DHT22;5863;52.832;4.758;2022-12-13T15:47:01;0.30;99.90
11615;DHT22;5863;52.832;4.758;2022-12-13T15:49:33;0.40;99.90
11615;DHT22;5863;52.832;4.758;2022-12-13T15:52:03;0.30;99.90
11615;DHT22;5863;52.832;4.758;2022-12-13T15:54:30;0.30;99.90
11615;DHT22;5863;52.832;4.758;2022-12-13T15:57:01;0.20;99.90
11615;DHT22;5863;52.832;4.758;2022-12-13T15:59:31;0.20;99.90
11615;DHT22;5863;52.832;4.758;2022-12-13T16:01:58;0.10;99.90
11615;DHT22;5863;52.832;4.758;2022-12-13T16:04:28;0.10;99.90
11615;DHT22;5863;52.832;4.758;2022-12-13T16:06:55;0.10;99.90
11615;DHT22;5863;52.832;4.758;2022-12-13T16:09:25;0.10;99.90
11615;DHT22;5863;52.832;4.758;2022-12-13T16:11:56;0.10;99.90
11615;DHT22;5863;52.832;4.758;2022-12-13T16:14:37;0.10;99.90
11615;DHT22;5863;52.832;4.758;2022-12-13T16:17:12;0.10;99.90
11615;DHT22;5863;52.832;4.758;2022-12-13T16:19:39;0.00;99.90
11615;DHT22;5863;52.832;4.758;2022-12-13T16:22:07;0.10;99.90
11615;DHT22;5863;52.832;4.758;2022-12-13T16:24:33;0.20;99.90
11615;DHT22;5863;52.832;4.758;2022-12-13T16:27:00;0.10;99.90
11615;DHT22;5863;52.832;4.758;2022-12-13T16:29:28;0.20;99.90
11615;DHT22;5863;52.832;4.758;2022-12-13T16:31:57;0.30;99.90
11615;DHT22;5863;52.832;4.758;2022-12-13T16:34:23;0.20;99.90
11615;DHT22;5863;52.832;4.758;2022-12-13T16:36:50;0.20;99.90